Westpoint, Tennessee
Current Conditions -  °F | °C
As of 9:53 AM on Thursday 23 Oct 2014 (Local Time) from KMSL Reporting Station
Clear Clear  
Wind Chill: 53°   Ceiling: Unl
Heat Index: 53°   Visibility: 10mi
Dew Point: 42°   Wind: 5mph
Humidity: 66%   Direction: 70°ENE
Pressure: 30.21"   Gusts: NA
Location:  35.13°N, 87.53°W
Report Text: KMSL 231453Z AUTO 07004KT 10SM CLR 12/06 A3021 RMK AO2 SLP229 T01170056 53007 $
Loading
Personal Weather Stations






























Interactive Weather Map
Tropical Storm Tracking
New forecast layout! Learn more

10-Day Weather Forecast

Advertisements
Track Severe Weather on mobile